Time;durP1;ratioP1;P1;durP2;ratioP2;P2;SDS_P1;SDS_P2;PMS_P1;PMS_P2;Temp;Humidity;BMP_temperature;BMP_pressure;BME280_temperature;BME280_humidity;BME280_pressure;Samples;Min_cycle;Max_cycle;Signal;HPM_P1;HPM_P2
2022/07/26 00:02:00;;;;;;;1.10;0.55;;;22.40;72.00;;;;;;5094207;28;20195;-70
2022/07/26 00:04:26;;;;;;;2.83;0.73;;;22.40;72.40;;;;;;5093868;28;20172;-69
2022/07/26 00:06:52;;;;;;;0.90;0.60;;;22.40;72.20;;;;;;5098158;28;20191;-69
2022/07/26 00:09:17;;;;;;;0.77;0.50;;;22.30;72.20;;;;;;5095446;28;20397;-70
2022/07/26 00:11:43;;;;;;;2.25;0.57;;;22.30;72.30;;;;;;5095912;28;20180;-71
2022/07/26 00:14:08;;;;;;;1.23;0.73;;;22.30;72.40;;;;;;5094644;28;20204;-71
2022/07/26 00:16:39;;;;;;;1.92;0.50;;;22.20;72.50;;;;;;5097609;28;20176;-72
2022/07/26 00:19:08;;;;;;;2.35;0.63;;;22.20;72.90;;;;;;5096310;28;20200;-70
2022/07/26 00:21:35;;;;;;;2.92;0.68;;;22.20;72.80;;;;;;5093697;28;20255;-73
2022/07/26 00:24:05;;;;;;;0.95;0.60;;;22.10;72.90;;;;;;5096463;28;20366;-70
2022/07/26 00:26:31;;;;;;;0.77;0.50;;;22.10;73.00;;;;;;5092589;28;20168;-70
2022/07/26 00:28:57;;;;;;;1.25;0.50;;;22.10;73.10;;;;;;5094955;28;20229;-69
2022/07/26 00:31:25;;;;;;;3.10;0.70;;;22.00;73.20;;;;;;5128263;27;20210;-70
2022/07/26 00:33:53;;;;;;;1.63;0.70;;;22.00;73.60;;;;;;5096935;28;20251;-71
2022/07/26 00:36:19;;;;;;;1.77;0.60;;;22.00;73.70;;;;;;5094155;28;20188;-71
2022/07/26 00:38:47;;;;;;;1.55;0.70;;;22.00;73.50;;;;;;5095367;28;20195;-70
2022/07/26 00:41:12;;;;;;;1.35;0.50;;;21.90;73.50;;;;;;5097605;28;20443;-71
2022/07/26 00:43:53;;;;;;;0.75;0.50;;;21.90;73.70;;;;;;5096002;28;20200;-70
2022/07/26 00:46:20;;;;;;;1.60;0.60;;;21.80;74.80;;;;;;5094243;28;20261;-70
2022/07/26 00:48:46;;;;;;;0.65;0.52;;;21.80;73.90;;;;;;5096454;28;20190;-70
2022/07/26 00:51:12;;;;;;;1.85;0.63;;;21.70;74.10;;;;;;5097587;28;20176;-71
2022/07/26 00:53:37;;;;;;;3.22;0.60;;;21.70;74.30;;;;;;5095689;28;20200;-71
2022/07/26 00:56:03;;;;;;;0.80;0.60;;;21.60;74.30;;;;;;5096977;28;20198;-71
2022/07/26 00:58:34;;;;;;;0.60;0.52;;;21.60;74.50;;;;;;5095629;28;20172;-71
2022/07/26 01:00:59;;;;;;;0.82;0.50;;;21.60;74.90;;;;;;5094262;28;20288;-71
2022/07/26 01:03:25;;;;;;;2.20;0.60;;;21.60;74.80;;;;;;5094888;28;20258;-70
2022/07/26 01:05:50;;;;;;;2.97;0.70;;;21.50;74.80;;;;;;5095835;28;20184;-70
2022/07/26 01:08:18;;;;;;;0.88;0.52;;;21.40;75.00;;;;;;5093625;28;20215;-70
2022/07/26 01:10:46;;;;;;;3.17;0.85;;;21.40;75.20;;;;;;5093871;28;20192;-70
2022/07/26 01:13:12;;;;;;;1.05;0.60;;;21.40;75.50;;;;;;5111776;27;20247;-70
2022/07/26 01:15:42;;;;;;;0.70;0.60;;;21.30;75.70;;;;;;5093790;28;20192;-70
2022/07/26 01:18:08;;;;;;;0.85;0.60;;;21.30;76.20;;;;;;5092802;28;20176;-70
2022/07/26 01:20:34;;;;;;;1.63;0.80;;;21.20;76.00;;;;;;5092652;28;20199;-72
2022/07/26 01:23:01;;;;;;;2.05;0.77;;;21.20;76.20;;;;;;5092614;28;20184;-73
2022/07/26 01:25:29;;;;;;;2.08;0.50;;;21.10;76.40;;;;;;5089263;28;20184;-72
2022/07/26 01:27:55;;;;;;;0.57;0.50;;;21.10;76.80;;;;;;5093266;28;20263;-72
2022/07/26 01:30:23;;;;;;;1.10;0.60;;;21.00;76.90;;;;;;5124563;27;20263;-72
2022/07/26 01:32:51;;;;;;;0.80;0.50;;;21.00;77.50;;;;;;5093032;28;20229;-73
2022/07/26 01:35:17;;;;;;;1.58;0.60;;;21.00;77.80;;;;;;5097331;28;20195;-71
2022/07/26 01:37:43;;;;;;;2.10;0.60;;;21.00;77.50;;;;;;5094601;28;20192;-71
2022/07/26 01:40:09;;;;;;;1.77;1.00;;;20.90;77.70;;;;;;5096246;28;20293;-70
2022/07/26 01:42:35;;;;;;;1.55;0.60;;;20.90;77.90;;;;;;5097293;28;20199;-70
2022/07/26 01:45:03;;;;;;;0.93;0.60;;;20.90;78.20;;;;;;5096760;28;20243;-71
2022/07/26 01:47:29;;;;;;;1.50;0.60;;;20.90;78.80;;;;;;5090710;28;20176;-72
2022/07/26 01:49:54;;;;;;;1.33;0.57;;;20.80;78.30;;;;;;5094853;28;20212;-73
2022/07/26 01:52:20;;;;;;;1.20;0.63;;;20.80;78.50;;;;;;5098244;28;20203;-73
2022/07/26 01:54:45;;;;;;;2.17;0.70;;;20.80;78.70;;;;;;5127225;27;20260;-72
2022/07/26 01:57:11;;;;;;;1.20;0.70;;;20.80;78.80;;;;;;5092574;28;20204;-71
2022/07/26 01:59:37;;;;;;;2.75;0.70;;;20.80;79.00;;;;;;5093815;28;20172;-72
2022/07/26 02:02:03;;;;;;;1.20;0.63;;;20.80;79.10;;;;;;5094494;28;20438;-70
2022/07/26 02:07:12;;;;;;;0.90;0.60;;;20.70;80.10;;;;;;5094967;28;20200;-71
2022/07/26 02:09:40;;;;;;;1.52;0.70;;;20.70;79.50;;;;;;5090768;28;20192;-73
2022/07/26 02:12:07;;;;;;;1.33;0.60;;;20.70;80.10;;;;;;5093204;28;20281;-70
2022/07/26 02:14:32;;;;;;;1.48;0.70;;;20.70;80.00;;;;;;5095994;28;20210;-71
2022/07/26 02:16:58;;;;;;;1.05;0.50;;;20.60;80.10;;;;;;5094100;28;20190;-70
2022/07/26 02:19:27;;;;;;;2.15;0.80;;;20.60;80.20;;;;;;5093976;28;20188;-70
2022/07/26 02:21:53;;;;;;;1.33;0.60;;;20.60;80.50;;;;;;5126070;28;20180;-69
2022/07/26 02:24:19;;;;;;;2.25;0.85;;;20.50;80.40;;;;;;5127413;27;20202;-71
2022/07/26 02:26:45;;;;;;;2.83;1.00;;;20.50;80.70;;;;;;5093271;28;20182;-69
2022/07/26 02:29:13;;;;;;;1.13;0.60;;;20.50;81.10;;;;;;5092279;28;20180;-70
2022/07/26 02:31:39;;;;;;;1.30;0.70;;;20.50;81.20;;;;;;5093703;28;20214;-70
2022/07/26 02:34:05;;;;;;;1.15;0.60;;;20.50;81.50;;;;;;5093599;28;20237;-71
2022/07/26 02:36:30;;;;;;;1.40;0.63;;;20.40;81.60;;;;;;5094480;28;20391;-71
2022/07/26 02:38:58;;;;;;;1.92;0.70;;;20.50;82.20;;;;;;5094468;28;20208;-71
2022/07/26 02:41:26;;;;;;;0.80;0.50;;;20.50;82.20;;;;;;5091372;28;20184;-70
2022/07/26 02:43:52;;;;;;;1.30;0.63;;;20.40;82.60;;;;;;5093922;28;20194;-71
2022/07/26 02:46:18;;;;;;;0.80;0.60;;;20.40;82.50;;;;;;5092221;28;20196;-71
2022/07/26 02:48:43;;;;;;;2.25;0.65;;;20.40;82.70;;;;;;5095070;28;20183;-70
2022/07/26 02:51:09;;;;;;;0.90;0.75;;;20.40;82.90;;;;;;5094962;28;20197;-70
2022/07/26 02:53:34;;;;;;;1.60;0.70;;;20.40;83.10;;;;;;5095167;28;20295;-70
2022/07/26 02:56:00;;;;;;;1.17;0.70;;;20.40;83.30;;;;;;5093932;28;20180;-71
2022/07/26 02:58:28;;;;;;;1.08;0.63;;;20.40;83.50;;;;;;5093832;28;20192;-70
2022/07/26 03:00:56;;;;;;;1.63;0.68;;;20.40;83.60;;;;;;5092936;28;20225;-70
2022/07/26 03:03:22;;;;;;;3.38;1.17;;;20.40;84.00;;;;;;5094244;28;20176;-71
2022/07/26 03:05:47;;;;;;;2.92;0.60;;;20.40;83.90;;;;;;5093922;28;20194;-70
2022/07/26 03:08:15;;;;;;;2.10;0.90;;;20.40;84.00;;;;;;5092255;28;20336;-70
2022/07/26 03:10:41;;;;;;;3.17;0.90;;;20.40;84.80;;;;;;5096229;28;20198;-71
2022/07/26 03:13:09;;;;;;;2.35;0.98;;;20.40;84.40;;;;;;5101949;28;20204;-70
2022/07/26 03:15:37;;;;;;;2.65;1.00;;;20.40;84.90;;;;;;5094896;28;20187;-70
2022/07/26 03:18:03;;;;;;;2.38;1.00;;;20.30;85.10;;;;;;5094152;28;20263;-69
2022/07/26 03:20:30;;;;;;;1.20;0.90;;;20.30;85.10;;;;;;5096493;28;20254;-70
2022/07/26 03:22:56;;;;;;;1.33;0.90;;;20.30;85.20;;;;;;5096390;28;20199;-70
2022/07/26 03:25:22;;;;;;;1.77;1.00;;;20.20;85.50;;;;;;5097418;28;20237;-70
2022/07/26 03:27:47;;;;;;;1.63;0.88;;;20.20;85.40;;;;;;5095504;28;20247;-70
2022/07/26 03:30:16;;;;;;;1.17;0.75;;;20.10;85.50;;;;;;5096459;28;20245;-71
2022/07/26 03:32:41;;;;;;;1.52;0.80;;;20.10;85.70;;;;;;5096019;28;20183;-69
2022/07/26 03:35:07;;;;;;;1.60;1.00;;;20.10;86.00;;;;;;5100789;28;20176;-71
2022/07/26 03:37:33;;;;;;;1.65;0.80;;;20.00;86.10;;;;;;5094394;28;20174;-70
2022/07/26 03:39:59;;;;;;;1.70;0.98;;;20.00;86.30;;;;;;5100053;28;20175;-71
2022/07/26 03:42:24;;;;;;;1.27;0.70;;;19.90;86.40;;;;;;5094760;28;20200;-71
2022/07/26 03:44:50;;;;;;;2.45;0.75;;;19.90;86.70;;;;;;5099600;28;20176;-70
2022/07/26 03:47:16;;;;;;;1.63;0.90;;;19.90;86.80;;;;;;5097271;28;20305;-70
2022/07/26 03:49:44;;;;;;;2.83;1.00;;;19.90;87.10;;;;;;5097574;28;20218;-71
2022/07/26 03:52:09;;;;;;;3.17;1.48;;;19.90;87.30;;;;;;5093137;28;20205;-70
2022/07/26 03:54:35;;;;;;;2.22;1.05;;;19.90;87.50;;;;;;5094469;28;20263;-71
2022/07/26 03:57:01;;;;;;;3.22;1.02;;;19.90;87.70;;;;;;5096288;28;20281;-70
2022/07/26 03:59:26;;;;;;;1.50;0.85;;;19.90;87.90;;;;;;5096363;28;20215;-70
2022/07/26 04:01:52;;;;;;;1.85;0.88;;;19.90;87.90;;;;;;5097537;28;20290;-69
2022/07/26 04:04:20;;;;;;;1.50;0.95;;;19.90;88.20;;;;;;5095698;28;20952;-71
2022/07/26 04:06:47;;;;;;;2.83;1.02;;;19.80;88.30;;;;;;5129472;27;20180;-73
2022/07/26 04:09:13;;;;;;;2.25;0.90;;;19.80;88.70;;;;;;5098237;28;20207;-70
2022/07/26 04:11:41;;;;;;;1.60;0.80;;;19.80;89.10;;;;;;5131166;27;20195;-70
2022/07/26 04:14:08;;;;;;;2.10;0.88;;;19.80;89.20;;;;;;5125438;27;20200;-70
2022/07/26 04:16:33;;;;;;;1.20;0.90;;;19.80;89.50;;;;;;5094286;28;20176;-73
2022/07/26 04:18:59;;;;;;;1.00;0.73;;;19.80;89.80;;;;;;5095957;28;20241;-70
2022/07/26 04:21:25;;;;;;;1.50;0.80;;;19.80;90.00;;;;;;5095330;28;20191;-71
2022/07/26 04:23:51;;;;;;;3.53;1.02;;;19.80;90.30;;;;;;5093845;28;20282;-71
2022/07/26 04:26:18;;;;;;;1.85;0.70;;;19.80;90.40;;;;;;5097355;28;20176;-70
2022/07/26 04:28:43;;;;;;;1.88;0.95;;;19.80;90.50;;;;;;5093151;28;20175;-71
2022/07/26 04:31:14;;;;;;;1.02;0.70;;;19.80;90.60;;;;;;5094635;28;20210;-70
2022/07/26 04:33:40;;;;;;;1.98;0.80;;;19.80;91.20;;;;;;5093854;28;20207;-71
2022/07/26 04:36:05;;;;;;;1.73;0.90;;;19.90;90.90;;;;;;5091705;28;20209;-72
2022/07/26 04:38:33;;;;;;;1.83;0.80;;;19.90;91.00;;;;;;5125502;27;20271;-71
2022/07/26 04:40:59;;;;;;;1.83;0.80;;;19.90;91.20;;;;;;5095606;28;20180;-71
2022/07/26 04:43:25;;;;;;;1.50;0.90;;;19.90;91.30;;;;;;5090113;28;20196;-69
2022/07/26 04:45:50;;;;;;;2.05;0.95;;;20.00;91.50;;;;;;5125511;27;20243;-70
2022/07/26 04:48:16;;;;;;;1.30;0.98;;;20.00;91.60;;;;;;5106651;28;20183;-69
2022/07/26 04:50:42;;;;;;;1.42;0.93;;;20.00;91.80;;;;;;5093882;28;20223;-70
2022/07/26 04:53:10;;;;;;;2.13;1.23;;;20.00;91.90;;;;;;5124053;27;20240;-69
2022/07/26 04:55:36;;;;;;;2.83;1.00;;;20.10;92.10;;;;;;5089122;28;20176;-80
2022/07/26 04:58:03;;;;;;;2.13;1.08;;;20.10;92.20;;;;;;5098397;28;20172;-70
2022/07/26 05:00:31;;;;;;;1.92;1.05;;;20.10;92.30;;;;;;5094240;28;20183;-70
2022/07/26 05:02:59;;;;;;;1.58;0.90;;;20.20;92.50;;;;;;5094970;28;20203;-70
2022/07/26 05:05:26;;;;;;;2.53;1.00;;;20.20;93.00;;;;;;5093715;28;20176;-71
2022/07/26 05:07:55;;;;;;;2.45;1.05;;;20.20;92.80;;;;;;5093882;28;20184;-71
2022/07/26 05:10:21;;;;;;;2.13;1.00;;;20.30;92.90;;;;;;5093883;28;20207;-70
2022/07/26 05:12:47;;;;;;;2.25;1.00;;;20.30;92.90;;;;;;5095804;28;20176;-71
2022/07/26 05:15:14;;;;;;;3.20;1.20;;;20.30;93.00;;;;;;5095336;28;20184;-70
2022/07/26 05:17:44;;;;;;;1.90;1.08;;;20.40;93.10;;;;;;5093219;28;20179;-75
2022/07/26 05:20:12;;;;;;;2.58;1.08;;;20.40;93.20;;;;;;5095032;28;20168;-75
2022/07/26 05:22:41;;;;;;;2.55;1.15;;;20.30;93.20;;;;;;5097188;28;20275;-75
2022/07/26 05:25:07;;;;;;;2.20;0.98;;;20.30;93.30;;;;;;5098165;28;20176;-76
2022/07/26 05:27:33;;;;;;;1.95;1.10;;;20.30;93.50;;;;;;5099437;28;20176;-75
2022/07/26 05:29:59;;;;;;;2.70;0.80;;;20.30;93.60;;;;;;5100774;28;20204;-76
2022/07/26 05:32:26;;;;;;;2.97;1.30;;;20.40;93.70;;;;;;5096526;28;20172;-74
2022/07/26 05:34:52;;;;;;;2.78;1.10;;;20.40;94.00;;;;;;5091554;28;20239;-74
2022/07/26 05:37:20;;;;;;;3.25;1.23;;;20.40;94.10;;;;;;5093136;28;20219;-75
2022/07/26 05:39:48;;;;;;;1.38;1.00;;;20.40;94.20;;;;;;5094069;28;20176;-75
2022/07/26 05:42:14;;;;;;;2.10;1.27;;;20.40;94.40;;;;;;5099481;28;20187;-74
2022/07/26 05:44:40;;;;;;;1.98;1.17;;;20.40;94.40;;;;;;5097573;28;20186;-73
2022/07/26 05:47:05;;;;;;;3.55;1.42;;;20.40;94.50;;;;;;5097156;28;20203;-74
2022/07/26 05:49:32;;;;;;;2.20;1.00;;;20.40;94.60;;;;;;5096618;28;20195;-74
2022/07/26 05:51:57;;;;;;;2.17;1.17;;;20.40;94.80;;;;;;5099378;28;20262;-74
2022/07/26 05:54:23;;;;;;;2.00;1.27;;;20.40;95.00;;;;;;5098464;28;20223;-74
2022/07/26 05:56:48;;;;;;;3.10;1.25;;;20.50;95.30;;;;;;5096570;28;20195;-73
2022/07/26 05:59:14;;;;;;;2.72;1.02;;;20.50;95.80;;;;;;5101027;28;20176;-74
2022/07/26 06:01:40;;;;;;;2.85;1.17;;;20.50;96.10;;;;;;5095014;28;20266;-74
2022/07/26 06:04:05;;;;;;;2.38;1.10;;;20.60;96.40;;;;;;5094454;28;20223;-74
2022/07/26 06:06:33;;;;;;;2.25;1.10;;;20.70;96.70;;;;;;5094193;28;20268;-74
2022/07/26 06:08:59;;;;;;;2.25;1.20;;;20.80;97.10;;;;;;5086413;28;20489;-75
2022/07/26 06:11:27;;;;;;;2.22;1.35;;;20.90;97.10;;;;;;5096338;28;20175;-74
2022/07/26 06:13:55;;;;;;;4.18;1.33;;;21.00;97.20;;;;;;5095348;28;20219;-74
2022/07/26 06:16:20;;;;;;;2.15;1.40;;;21.10;97.20;;;;;;5094186;28;20195;-75
2022/07/26 06:18:46;;;;;;;2.88;1.30;;;21.20;97.20;;;;;;5103707;28;20163;-75
2022/07/26 06:21:11;;;;;;;2.47;1.38;;;21.20;97.20;;;;;;5099025;28;20176;-75
2022/07/26 06:23:39;;;;;;;4.13;1.50;;;21.20;97.30;;;;;;5097186;28;20210;-75
2022/07/26 06:26:05;;;;;;;3.65;1.70;;;21.30;97.40;;;;;;5094683;28;20206;-74
2022/07/26 06:28:31;;;;;;;4.15;1.88;;;21.30;97.40;;;;;;5097595;28;20179;-74
2022/07/26 06:30:59;;;;;;;5.38;1.92;;;21.30;97.40;;;;;;5096654;28;20200;-74
2022/07/26 06:33:24;;;;;;;3.22;1.52;;;21.30;97.50;;;;;;5095645;28;20207;-74
2022/07/26 06:35:50;;;;;;;4.75;1.80;;;21.20;97.50;;;;;;5098110;28;20278;-75
2022/07/26 06:38:18;;;;;;;3.00;1.60;;;21.10;97.50;;;;;;5100140;28;20210;-74
2022/07/26 06:40:46;;;;;;;5.47;1.90;;;21.10;97.60;;;;;;5096217;28;20194;-75
2022/07/26 06:43:11;;;;;;;3.35;1.48;;;21.00;98.00;;;;;;5095290;28;20208;-75
2022/07/26 06:45:37;;;;;;;4.93;2.10;;;21.00;98.00;;;;;;5095385;28;20243;-72
2022/07/26 06:48:03;;;;;;;3.45;1.60;;;21.00;98.30;;;;;;5109055;28;20184;-74
2022/07/26 06:50:33;;;;;;;5.40;1.77;;;20.90;98.40;;;;;;5100351;28;20192;-74
2022/07/26 06:53:01;;;;;;;5.60;1.73;;;20.90;98.90;;;;;;5129335;27;20200;-75
2022/07/26 06:55:29;;;;;;;4.50;1.63;;;20.90;98.80;;;;;;5098597;28;20176;-74
2022/07/26 06:57:54;;;;;;;4.90;1.75;;;20.90;99.30;;;;;;5100476;28;20192;-72
2022/07/26 07:00:20;;;;;;;3.47;1.50;;;20.90;99.40;;;;;;5102157;28;20176;-75
2022/07/26 07:02:50;;;;;;;3.22;1.65;;;20.90;99.50;;;;;;5099823;28;20170;-75
2022/07/26 07:05:19;;;;;;;2.70;1.60;;;20.90;99.90;;;;;;5101661;28;20191;-75
2022/07/26 07:07:44;;;;;;;3.63;1.77;;;20.90;99.90;;;;;;5098556;28;20225;-74
2022/07/26 07:10:10;;;;;;;3.38;1.73;;;20.90;99.90;;;;;;5098985;28;20211;-74
2022/07/26 07:12:38;;;;;;;3.92;1.45;;;20.90;99.90;;;;;;5098991;28;20172;-74
2022/07/26 07:15:07;;;;;;;3.72;2.05;;;20.90;99.90;;;;;;5104797;28;20263;-75
2022/07/26 07:17:35;;;;;;;6.20;2.30;;;21.00;99.90;;;;;;5099076;28;20207;-74
2022/07/26 07:20:03;;;;;;;4.18;1.98;;;21.00;99.90;;;;;;5096407;28;20195;-76
2022/07/26 07:22:30;;;;;;;5.78;2.58;;;21.00;99.90;;;;;;5100194;28;20179;-71
2022/07/26 07:24:58;;;;;;;4.53;1.95;;;21.00;99.90;;;;;;5097196;28;20359;-75
2022/07/26 07:27:23;;;;;;;3.53;1.92;;;21.10;99.90;;;;;;5097372;28;20284;-72
2022/07/26 07:29:51;;;;;;;4.70;2.30;;;21.10;99.90;;;;;;5099912;28;20180;-70
2022/07/26 07:32:19;;;;;;;5.35;2.20;;;21.20;99.90;;;;;;5098054;28;20184;-71
2022/07/26 07:34:48;;;;;;;4.93;2.30;;;21.20;99.90;;;;;;5097331;28;20203;-71
2022/07/26 07:37:17;;;;;;;3.85;2.05;;;21.20;99.90;;;;;;5097159;28;20200;-71
2022/07/26 07:39:43;;;;;;;4.47;2.03;;;21.30;99.90;;;;;;5098420;28;20201;-69
2022/07/26 07:42:09;;;;;;;5.00;2.13;;;21.30;99.90;;;;;;5098932;28;20266;-71
2022/07/26 07:44:36;;;;;;;4.32;2.30;;;21.30;99.90;;;;;;5096830;28;20229;-71
2022/07/26 07:47:02;;;;;;;2.63;1.70;;;21.30;99.90;;;;;;5096771;28;20194;-71
2022/07/26 07:49:30;;;;;;;3.65;2.00;;;21.40;99.90;;;;;;5100738;28;20203;-71
2022/07/26 07:51:56;;;;;;;2.97;1.73;;;21.50;99.90;;;;;;5101398;28;20186;-70
2022/07/26 07:54:21;;;;;;;5.70;2.42;;;21.50;99.90;;;;;;5096990;28;20282;-71
2022/07/26 07:56:47;;;;;;;3.60;1.83;;;21.60;99.90;;;;;;5096916;28;20274;-72
2022/07/26 07:59:12;;;;;;;4.78;2.38;;;21.70;99.90;;;;;;5099009;28;20180;-69
2022/07/26 08:01:38;;;;;;;3.13;1.80;;;21.80;99.90;;;;;;5097857;28;20192;-71
2022/07/26 08:04:04;;;;;;;6.22;2.20;;;21.90;99.90;;;;;;5098221;28;20176;-71
2022/07/26 08:06:30;;;;;;;3.08;1.90;;;22.00;99.90;;;;;;5101340;28;20211;-72
2022/07/26 08:08:55;;;;;;;3.55;2.20;;;22.10;99.90;;;;;;5097583;28;20219;-72
2022/07/26 08:11:23;;;;;;;6.53;2.28;;;22.20;99.90;;;;;;5097300;28;20188;-70
2022/07/26 08:13:51;;;;;;;3.38;1.80;;;22.30;99.90;;;;;;5097117;28;20275;-72
2022/07/26 08:16:19;;;;;;;5.30;2.20;;;22.40;99.90;;;;;;5099184;28;20172;-71
2022/07/26 08:18:50;;;;;;;2.80;1.92;;;22.40;99.90;;;;;;5097777;28;20270;-71
2022/07/26 08:21:15;;;;;;;3.25;2.42;;;22.50;99.90;;;;;;5095674;28;20219;-71
2022/07/26 08:23:43;;;;;;;5.28;1.98;;;22.50;99.90;;;;;;5096169;28;20183;-70
2022/07/26 08:26:11;;;;;;;5.72;2.40;;;22.50;99.90;;;;;;5095613;28;20284;-68
2022/07/26 08:28:38;;;;;;;4.15;2.45;;;22.60;99.90;;;;;;5094254;28;20172;-70
2022/07/26 08:31:04;;;;;;;6.10;2.70;;;22.70;99.90;;;;;;5097179;28;20198;-70
2022/07/26 08:33:32;;;;;;;5.65;2.67;;;22.70;99.90;;;;;;5095758;28;20204;-72
2022/07/26 08:35:57;;;;;;;4.45;2.55;;;22.70;99.90;;;;;;5095565;28;20187;-72
2022/07/26 08:38:23;;;;;;;3.45;2.58;;;22.70;99.90;;;;;;5094731;28;20172;-71
2022/07/26 08:40:52;;;;;;;4.13;2.45;;;22.80;99.90;;;;;;5097240;28;20194;-70
2022/07/26 08:43:18;;;;;;;4.15;2.50;;;22.90;99.90;;;;;;5098889;28;20195;-70
2022/07/26 08:45:46;;;;;;;3.67;2.40;;;22.90;99.90;;;;;;5097376;28;21093;-70
2022/07/26 08:48:12;;;;;;;4.13;2.53;;;22.90;99.90;;;;;;5096046;28;20203;-70
2022/07/26 08:50:41;;;;;;;3.15;2.55;;;22.90;99.90;;;;;;5095727;28;20208;-71
2022/07/26 08:53:11;;;;;;;5.60;3.08;;;23.00;99.90;;;;;;5098526;28;20208;-72
2022/07/26 08:55:37;;;;;;;5.82;3.20;;;23.00;99.90;;;;;;5094236;28;20184;-71
2022/07/26 08:58:03;;;;;;;4.40;2.85;;;23.10;99.90;;;;;;5095843;28;20200;-70
2022/07/26 09:00:32;;;;;;;4.30;3.03;;;23.10;99.90;;;;;;5097724;28;20221;-70
2022/07/26 09:02:59;;;;;;;3.58;3.00;;;23.20;99.90;;;;;;5095225;28;20233;-72
2022/07/26 09:05:33;;;;;;;5.63;3.30;;;23.20;99.90;;;;;;5104356;28;20187;-71
2022/07/26 09:08:00;;;;;;;4.22;2.92;;;23.20;99.90;;;;;;5097702;28;20169;-70
2022/07/26 09:10:27;;;;;;;6.53;3.58;;;23.20;99.90;;;;;;5097405;28;20186;-71
2022/07/26 09:12:57;;;;;;;4.10;2.80;;;23.20;99.90;;;;;;5097989;28;20187;-71
2022/07/26 09:15:25;;;;;;;4.70;2.83;;;23.30;99.90;;;;;;5094866;28;20175;-70
2022/07/26 09:17:54;;;;;;;4.75;3.00;;;23.30;99.90;;;;;;5096230;28;20207;-72
2022/07/26 09:20:31;;;;;;;5.57;3.20;;;23.40;99.90;;;;;;5097956;28;20184;-71
2022/07/26 09:23:08;;;;;;;4.65;2.88;;;23.60;99.90;;;;;;5096366;28;20180;-71
2022/07/26 09:25:46;;;;;;;5.40;3.25;;;23.70;99.90;;;;;;5096372;28;20198;-71
2022/07/26 09:28:24;;;;;;;3.85;2.80;;;23.80;99.90;;;;;;5098656;28;20172;-71
2022/07/26 09:30:59;;;;;;;5.30;3.10;;;23.80;99.90;;;;;;5097139;28;20171;-72
2022/07/26 09:33:25;;;;;;;5.85;3.40;;;23.90;99.90;;;;;;5092501;28;20209;-71
2022/07/26 09:36:02;;;;;;;6.32;2.97;;;23.90;99.90;;;;;;5096360;28;20195;-70
2022/07/26 09:38:43;;;;;;;5.28;3.22;;;23.90;99.90;;;;;;5095195;28;20175;-71
2022/07/26 09:41:23;;;;;;;3.75;2.42;;;24.10;99.90;;;;;;5097453;28;20203;-69
2022/07/26 09:43:50;;;;;;;5.13;3.00;;;24.20;99.90;;;;;;5098451;28;20183;-71
2022/07/26 09:46:18;;;;;;;8.80;3.20;;;24.30;99.90;;;;;;5094969;28;20286;-70
2022/07/26 09:48:46;;;;;;;4.50;3.17;;;24.40;99.90;;;;;;5094335;28;20207;-69
2022/07/26 09:51:12;;;;;;;4.70;3.30;;;24.40;99.90;;;;;;5096472;28;20180;-72
2022/07/26 09:53:48;;;;;;;4.35;3.55;;;24.40;99.90;;;;;;5094622;28;20191;-70
2022/07/26 09:56:13;;;;;;;5.13;3.33;;;24.40;99.90;;;;;;5094951;28;20186;-71
2022/07/26 09:58:42;;;;;;;5.07;3.40;;;24.50;99.90;;;;;;5095352;28;20172;-71
2022/07/26 10:01:08;;;;;;;4.68;3.90;;;24.50;99.90;;;;;;5093414;28;20200;-71
2022/07/26 10:03:34;;;;;;;7.10;3.78;;;24.60;99.90;;;;;;5093848;28;20202;-71
2022/07/26 10:06:01;;;;;;;5.80;3.78;;;24.70;99.90;;;;;;5095606;28;20183;-71
2022/07/26 10:08:28;;;;;;;6.20;3.55;;;24.70;99.90;;;;;;5098893;28;20218;-72
2022/07/26 10:11:07;;;;;;;5.65;3.90;;;24.70;99.90;;;;;;5095681;28;20183;-71
2022/07/26 10:13:33;;;;;;;6.63;4.10;;;24.70;99.90;;;;;;5095091;28;20199;-71
2022/07/26 10:15:59;;;;;;;7.07;4.35;;;24.60;99.90;;;;;;5094342;28;20182;-71
2022/07/26 10:18:36;;;;;;;5.03;3.53;;;24.60;99.90;;;;;;5095724;28;20178;-71
2022/07/26 10:21:18;;;;;;;4.78;3.47;;;24.60;99.70;;;;;;5098222;28;20199;-71
2022/07/26 10:23:49;;;;;;;6.35;3.35;;;24.70;99.70;;;;;;5099251;28;20206;-72
2022/07/26 10:26:30;;;;;;;6.25;3.50;;;24.70;99.60;;;;;;5096435;28;20203;-72
2022/07/26 10:29:18;;;;;;;6.75;4.18;;;24.70;99.40;;;;;;5100402;28;20186;-72
2022/07/26 10:31:59;;;;;;;4.63;3.85;;;24.70;99.00;;;;;;5087972;28;20223;-72
2022/07/26 10:34:30;;;;;;;6.88;4.22;;;24.70;99.00;;;;;;5100086;28;20187;-71
2022/07/26 10:37:04;;;;;;;5.18;4.28;;;24.60;99.20;;;;;;5097768;28;20183;-72
2022/07/26 10:39:34;;;;;;;5.70;3.92;;;24.50;98.80;;;;;;5099468;28;20236;-71
2022/07/26 10:42:03;;;;;;;6.13;4.18;;;24.30;98.90;;;;;;5100106;28;20240;-71
2022/07/26 10:44:32;;;;;;;5.65;3.70;;;24.20;99.10;;;;;;5098307;28;20199;-72
2022/07/26 10:47:07;;;;;;;7.13;4.25;;;24.10;99.50;;;;;;5101676;28;20176;-71
2022/07/26 10:49:43;;;;;;;6.97;4.20;;;24.10;99.70;;;;;;5110333;28;20187;-71
2022/07/26 10:52:12;;;;;;;6.15;3.75;;;24.10;99.60;;;;;;5098432;28;20195;-72
2022/07/26 10:54:56;;;;;;;6.53;3.78;;;24.10;99.80;;;;;;5098419;28;20341;-72
2022/07/26 10:57:32;;;;;;;5.18;4.13;;;24.10;99.90;;;;;;5099260;28;20206;-72
2022/07/26 11:00:01;;;;;;;4.35;3.30;;;24.10;99.90;;;;;;5101584;28;20198;-72
2022/07/26 11:02:31;;;;;;;3.35;2.72;;;24.20;99.90;;;;;;5095895;28;20263;-72
2022/07/26 11:05:03;;;;;;;2.75;2.40;;;24.40;99.90;;;;;;5099965;28;20183;-72
2022/07/26 11:07:29;;;;;;;2.45;2.20;;;24.50;98.80;;;;;;5097385;28;21487;-71
2022/07/26 11:10:01;;;;;;;2.67;2.17;;;24.60;98.70;;;;;;5096718;28;20215;-71
2022/07/26 11:12:27;;;;;;;1.70;1.60;;;24.60;98.00;;;;;;5096975;28;20176;-72
2022/07/26 11:14:53;;;;;;;2.30;2.10;;;24.60;98.00;;;;;;5097476;28;20223;-72
2022/07/26 11:17:36;;;;;;;2.97;2.15;;;24.60;98.00;;;;;;5097970;28;20241;-71
2022/07/26 11:20:05;;;;;;;2.72;1.85;;;24.60;97.70;;;;;;5097968;28;20218;-72
2022/07/26 11:22:35;;;;;;;1.98;1.70;;;24.60;98.10;;;;;;5093806;28;20202;-71
2022/07/26 11:25:03;;;;;;;2.65;1.70;;;24.70;98.10;;;;;;5099340;28;20180;-72
2022/07/26 11:27:29;;;;;;;5.60;2.03;;;24.70;98.00;;;;;;5098795;28;20194;-71
2022/07/26 11:30:05;;;;;;;2.67;1.80;;;24.80;98.10;;;;;;5096566;28;20754;-72
2022/07/26 11:32:33;;;;;;;4.20;1.90;;;24.90;97.50;;;;;;5096740;28;20179;-72
2022/07/26 11:35:01;;;;;;;3.00;1.90;;;25.00;97.40;;;;;;5097236;28;20306;-72
2022/07/26 11:37:27;;;;;;;2.10;1.60;;;25.00;97.30;;;;;;5096682;28;20172;-72
2022/07/26 11:39:53;;;;;;;2.80;1.75;;;24.90;97.00;;;;;;5096693;28;20180;-71
2022/07/26 11:42:20;;;;;;;4.72;1.83;;;25.00;97.10;;;;;;5097442;28;20172;-73
2022/07/26 11:44:47;;;;;;;2.88;1.70;;;25.20;96.80;;;;;;5095983;28;20180;-74
2022/07/26 11:47:15;;;;;;;2.15;1.52;;;25.20;96.90;;;;;;5096709;28;20288;-72
2022/07/26 11:49:43;;;;;;;1.85;1.55;;;25.40;96.50;;;;;;5095980;28;20172;-72
2022/07/26 11:52:10;;;;;;;3.83;2.00;;;25.60;96.80;;;;;;5096665;28;20232;-72
2022/07/26 11:54:49;;;;;;;2.30;1.70;;;25.90;96.80;;;;;;5106363;28;20188;-71
2022/07/26 11:57:15;;;;;;;1.88;1.70;;;26.20;96.00;;;;;;5095234;28;20492;-72
2022/07/26 11:59:46;;;;;;;2.75;1.65;;;26.50;96.60;;;;;;5099907;28;20195;-72
2022/07/26 12:02:13;;;;;;;2.00;1.63;;;26.70;95.90;;;;;;5097847;28;20180;-71
2022/07/26 12:04:43;;;;;;;3.80;1.55;;;26.90;95.00;;;;;;5100822;28;20172;-73
2022/07/26 12:07:17;;;;;;;2.30;1.70;;;27.10;95.00;;;;;;5100163;28;20184;-72
2022/07/26 12:09:51;;;;;;;4.10;1.70;;;27.30;94.10;;;;;;5095664;28;20231;-72
2022/07/26 12:12:30;;;;;;;3.08;1.90;;;27.60;92.80;;;;;;5099100;28;20203;-71
2022/07/26 12:15:04;;;;;;;3.10;1.80;;;27.80;92.30;;;;;;5095065;28;20221;-72
2022/07/26 12:17:31;;;;;;;3.28;2.08;;;27.80;92.00;;;;;;5097062;28;20184;-73
2022/07/26 12:20:16;;;;;;;4.07;2.30;;;27.70;91.40;;;;;;5098974;28;20237;-73
2022/07/26 12:22:57;;;;;;;4.20;2.47;;;27.50;89.70;;;;;;5101398;28;20191;-73
2022/07/26 12:25:26;;;;;;;4.95;2.20;;;27.30;90.30;;;;;;5094937;28;20207;-73
2022/07/26 12:27:52;;;;;;;7.43;1.60;;;27.00;89.30;;;;;;5097415;28;20190;-72
2022/07/26 12:30:20;;;;;;;3.85;1.90;;;26.70;89.20;;;;;;5095755;28;20286;-72
2022/07/26 12:32:50;;;;;;;4.53;1.98;;;26.40;88.30;;;;;;5095483;28;20188;-72
2022/07/26 12:35:24;;;;;;;4.65;2.38;;;26.10;88.50;;;;;;5100489;28;20231;-72
2022/07/26 12:37:52;;;;;;;4.57;1.90;;;25.90;89.90;;;;;;5099227;28;20192;-72
2022/07/26 12:40:27;;;;;;;3.83;1.90;;;25.70;90.40;;;;;;5097621;28;20175;-72
2022/07/26 12:42:57;;;;;;;3.35;1.90;;;25.50;90.90;;;;;;5095306;28;20207;-72
2022/07/26 12:45:28;;;;;;;2.63;1.67;;;25.40;91.30;;;;;;5095592;28;20176;-72
2022/07/26 12:47:55;;;;;;;3.58;2.10;;;25.20;91.60;;;;;;5097780;28;20161;-71
2022/07/26 12:50:23;;;;;;;4.28;2.33;;;25.20;91.90;;;;;;5096173;28;20168;-72
2022/07/26 12:52:59;;;;;;;3.95;1.70;;;25.10;92.40;;;;;;5102149;28;20267;-74
2022/07/26 12:55:25;;;;;;;2.88;1.70;;;25.00;92.60;;;;;;5100418;28;20207;-72